Time;durP1;ratioP1;P1;durP2;ratioP2;P2;SDS_P1;SDS_P2;PMS_P1;PMS_P2;Temp;Humidity;BMP_temperature;BMP_pressure;BME280_temperature;BME280_humidity;BME280_pressure;Samples;Min_cycle;Max_cycle;Signal;HPM_P1;HPM_P2
2021/11/13 00:00:00;;;;;;;16.50;14.63;;;5.30;99.90;;;;;;5033281;28;20290;-64
2021/11/13 00:02:26;;;;;;;14.80;13.33;;;5.40;99.90;;;;;;5047870;28;20250;-65
2021/11/13 00:04:52;;;;;;;15.47;13.97;;;5.40;99.90;;;;;;5054524;28;20171;-65
2021/11/13 00:07:18;;;;;;;16.07;14.37;;;5.50;99.90;;;;;;5052686;28;20186;-64
2021/11/13 00:09:43;;;;;;;15.93;14.23;;;5.50;99.90;;;;;;5054156;28;20584;-65
2021/11/13 00:12:09;;;;;;;17.90;14.33;;;5.50;99.90;;;;;;5041760;28;20195;-65
2021/11/13 00:14:35;;;;;;;16.30;14.07;;;5.60;99.90;;;;;;5034222;28;20163;-66
2021/11/13 00:17:01;;;;;;;16.77;15.03;;;5.60;99.90;;;;;;5044474;28;20544;-63
2021/11/13 00:19:27;;;;;;;14.30;12.87;;;5.60;99.90;;;;;;5053602;28;20650;-63
2021/11/13 00:21:53;;;;;;;15.80;14.17;;;5.70;99.90;;;;;;5044897;28;20199;-66
2021/11/13 00:24:19;;;;;;;17.50;13.67;;;5.60;99.90;;;;;;5034110;28;20228;-64
2021/11/13 00:26:44;;;;;;;17.47;13.57;;;5.70;99.90;;;;;;5041009;28;20186;-64
2021/11/13 00:29:10;;;;;;;19.33;14.30;;;5.70;99.90;;;;;;5053762;28;20159;-64
2021/11/13 00:31:36;;;;;;;16.37;14.57;;;5.70;99.90;;;;;;5048036;28;20199;-65
2021/11/13 00:34:02;;;;;;;14.63;13.10;;;5.70;99.90;;;;;;5034027;28;20175;-65
2021/11/13 00:36:28;;;;;;;15.00;13.50;;;5.80;99.90;;;;;;5037228;28;20510;-66
2021/11/13 00:38:54;;;;;;;16.80;12.67;;;5.80;99.90;;;;;;5053742;28;20183;-65
2021/11/13 00:41:20;;;;;;;15.10;13.17;;;5.80;99.90;;;;;;5051046;28;20680;-64
2021/11/13 00:43:46;;;;;;;14.30;12.77;;;5.90;99.90;;;;;;5034101;28;20641;-64
2021/11/13 00:46:12;;;;;;;16.77;12.77;;;5.90;99.90;;;;;;5033994;28;20247;-65
2021/11/13 00:48:38;;;;;;;14.23;12.83;;;5.90;99.90;;;;;;5053447;28;20199;-66
2021/11/13 00:51:03;;;;;;;15.03;13.50;;;5.80;99.90;;;;;;5037873;28;20207;-62
2021/11/13 00:53:30;;;;;;;16.33;14.33;;;5.80;99.90;;;;;;5033739;28;20182;-64
2021/11/13 00:55:56;;;;;;;15.87;14.17;;;5.80;99.90;;;;;;5047350;28;20207;-66
2021/11/13 00:58:22;;;;;;;13.60;12.23;;;5.80;99.90;;;;;;5053334;28;20199;-65
2021/11/13 01:00:48;;;;;;;15.67;12.97;;;5.80;99.90;;;;;;5040524;28;20787;-64
2021/11/13 01:03:15;;;;;;;14.37;12.90;;;5.80;99.90;;;;;;5033541;28;20625;-65
2021/11/13 01:05:41;;;;;;;13.30;12.10;;;5.80;99.90;;;;;;5043668;28;20269;-65
2021/11/13 01:08:07;;;;;;;14.33;13.03;;;5.70;99.90;;;;;;5053460;28;20253;-65
2021/11/13 01:10:33;;;;;;;14.97;13.30;;;5.70;99.90;;;;;;5043565;28;20257;-66
2021/11/13 01:12:58;;;;;;;13.27;11.93;;;5.70;99.90;;;;;;5033322;28;20207;-66
2021/11/13 01:15:24;;;;;;;14.47;13.00;;;5.70;99.90;;;;;;5040013;28;20222;-65
2021/11/13 01:17:50;;;;;;;15.60;14.00;;;5.70;99.90;;;;;;5050191;28;20229;-65
2021/11/13 01:20:17;;;;;;;15.97;13.97;;;5.70;99.90;;;;;;5032793;28;20544;-64
2021/11/13 01:22:44;;;;;;;15.03;13.47;;;5.70;99.90;;;;;;5034179;28;20210;-65
2021/11/13 01:25:10;;;;;;;14.87;13.10;;;5.70;99.90;;;;;;5052994;28;20202;-65
2021/11/13 01:27:36;;;;;;;14.73;13.17;;;5.70;99.90;;;;;;5052523;28;20175;-64
2021/11/13 01:30:04;;;;;;;14.17;12.73;;;5.70;99.90;;;;;;5032712;28;20175;-65
2021/11/13 01:32:30;;;;;;;15.57;13.47;;;5.80;99.90;;;;;;5032756;28;20179;-64
2021/11/13 01:34:56;;;;;;;13.63;11.80;;;5.80;99.90;;;;;;5051146;28;20182;-65
2021/11/13 01:37:21;;;;;;;15.40;13.67;;;5.80;99.90;;;;;;5052607;28;20170;-65
2021/11/13 01:39:47;;;;;;;17.23;13.17;;;5.80;99.90;;;;;;5035356;28;20187;-64
2021/11/13 01:42:13;;;;;;;15.13;13.60;;;5.80;99.90;;;;;;5032077;28;20210;-66
2021/11/13 01:44:39;;;;;;;14.23;12.83;;;5.90;99.90;;;;;;5047457;28;20547;-66
2021/11/13 01:47:06;;;;;;;15.47;13.10;;;5.90;99.90;;;;;;5041672;28;20176;-64
2021/11/13 01:49:34;;;;;;;14.70;13.20;;;5.90;99.90;;;;;;5032204;28;20263;-65
2021/11/13 01:52:06;;;;;;;17.37;14.07;;;6.00;99.90;;;;;;5041849;28;20272;-65
2021/11/13 01:54:36;;;;;;;14.57;12.93;;;6.10;99.90;;;;;;5052265;28;20190;-65
2021/11/13 01:57:07;;;;;;;13.70;12.40;;;6.10;99.90;;;;;;5042979;28;20202;-65
2021/11/13 01:59:33;;;;;;;14.63;13.23;;;6.20;99.90;;;;;;5031920;28;20258;-64
2021/11/13 02:01:58;;;;;;;13.80;12.50;;;6.20;99.90;;;;;;5022368;28;20654;-65
2021/11/13 02:04:24;;;;;;;17.07;12.57;;;6.20;99.90;;;;;;5052478;28;20174;-68
2021/11/13 02:06:49;;;;;;;15.70;13.33;;;6.30;99.90;;;;;;5034750;28;20178;-64
2021/11/13 02:09:15;;;;;;;16.07;13.13;;;6.30;99.90;;;;;;5032018;28;20167;-64
2021/11/13 02:11:41;;;;;;;14.60;13.20;;;6.30;99.90;;;;;;5047193;28;20198;-64
2021/11/13 02:14:06;;;;;;;14.27;12.77;;;6.30;99.90;;;;;;5051723;28;20179;-64
2021/11/13 02:16:32;;;;;;;14.57;13.13;;;6.40;99.90;;;;;;5012223;28;20318;-65
2021/11/13 02:18:58;;;;;;;17.27;13.47;;;6.40;99.90;;;;;;5012165;28;20661;-65
2021/11/13 02:21:26;;;;;;;14.17;12.37;;;6.40;99.90;;;;;;5047383;28;20221;-65
2021/11/13 02:23:52;;;;;;;16.27;13.90;;;6.40;99.90;;;;;;5051892;28;20171;-64
2021/11/13 02:26:17;;;;;;;13.13;11.53;;;6.40;99.90;;;;;;5034999;28;20534;-64
2021/11/13 02:28:43;;;;;;;12.50;11.33;;;6.50;99.90;;;;;;5031606;28;20172;-65
2021/11/13 02:31:11;;;;;;;18.30;14.43;;;6.50;99.90;;;;;;5046159;28;20566;-64
2021/11/13 02:33:38;;;;;;;14.20;12.80;;;6.50;99.90;;;;;;5051684;28;20282;-64
2021/11/13 02:36:06;;;;;;;14.20;12.70;;;6.60;99.90;;;;;;5040609;28;20194;-64
2021/11/13 02:38:36;;;;;;;13.40;11.90;;;6.60;99.90;;;;;;5047427;28;20187;-67
2021/11/13 02:41:04;;;;;;;15.23;13.63;;;6.70;99.90;;;;;;5031521;28;20692;-64
2021/11/13 02:43:32;;;;;;;15.77;13.07;;;6.70;99.90;;;;;;5040303;28;20175;-64
2021/11/13 02:46:01;;;;;;;16.47;12.87;;;6.80;99.90;;;;;;5051560;28;20186;-64
2021/11/13 02:48:28;;;;;;;13.97;12.63;;;6.80;99.90;;;;;;5049713;28;20247;-65
2021/11/13 02:50:55;;;;;;;15.83;13.73;;;6.90;99.90;;;;;;5051035;28;20230;-64
2021/11/13 02:53:23;;;;;;;15.07;13.17;;;6.90;99.90;;;;;;5044176;28;20187;-64
2021/11/13 02:55:51;;;;;;;15.50;13.77;;;7.00;99.90;;;;;;5013809;28;20179;-65
2021/11/13 02:58:20;;;;;;;13.70;12.03;;;7.00;99.90;;;;;;5036446;28;20189;-64
2021/11/13 03:00:47;;;;;;;16.77;12.67;;;7.00;99.90;;;;;;5050487;28;20293;-65
2021/11/13 03:03:17;;;;;;;15.23;13.57;;;7.00;99.90;;;;;;5047023;28;20626;-65
2021/11/13 03:05:49;;;;;;;20.07;14.20;;;7.10;99.90;;;;;;5031454;28;20167;-64
2021/11/13 03:08:29;;;;;;;13.83;12.43;;;7.10;99.90;;;;;;5034738;28;20170;-65
2021/11/13 03:10:58;;;;;;;18.77;15.03;;;7.10;99.90;;;;;;5048660;28;20195;-64
2021/11/13 03:13:24;;;;;;;16.93;15.13;;;7.10;99.90;;;;;;5031322;28;20258;-65
2021/11/13 03:15:51;;;;;;;16.83;14.17;;;7.10;99.90;;;;;;5031835;28;20641;-65
2021/11/13 03:18:17;;;;;;;22.37;14.87;;;7.20;99.90;;;;;;5051068;28;20178;-64
2021/11/13 03:20:43;;;;;;;16.77;13.57;;;7.20;99.90;;;;;;5050669;28;20794;-65
2021/11/13 03:23:09;;;;;;;18.73;14.37;;;7.30;99.90;;;;;;5032096;28;20190;-65
2021/11/13 03:25:39;;;;;;;17.73;13.70;;;7.30;99.90;;;;;;5031257;28;20273;-65
2021/11/13 03:28:17;;;;;;;16.43;14.27;;;7.40;99.90;;;;;;5048718;28;20186;-65
2021/11/13 03:30:42;;;;;;;16.10;13.70;;;7.40;99.90;;;;;;5050692;28;20543;-65
2021/11/13 03:33:08;;;;;;;15.00;13.07;;;7.40;99.90;;;;;;5036955;28;20245;-65
2021/11/13 03:35:35;;;;;;;16.50;14.70;;;7.40;99.90;;;;;;5031105;28;20274;-66
2021/11/13 03:38:08;;;;;;;17.70;14.33;;;7.40;99.90;;;;;;5029052;28;20194;-65
2021/11/13 03:40:36;;;;;;;17.67;13.80;;;7.40;99.90;;;;;;5030568;28;20215;-64
2021/11/13 03:43:02;;;;;;;17.63;13.97;;;7.50;99.90;;;;;;5034363;28;20182;-64
2021/11/13 03:45:28;;;;;;;17.90;14.60;;;7.50;99.90;;;;;;5051030;28;20185;-64
2021/11/13 03:47:53;;;;;;;17.50;14.87;;;7.50;99.90;;;;;;5049098;28;20171;-65
2021/11/13 03:50:19;;;;;;;13.97;12.47;;;7.50;99.90;;;;;;5030626;28;20246;-64
2021/11/13 03:52:45;;;;;;;16.37;14.10;;;7.40;99.90;;;;;;5030798;28;20238;-64
2021/11/13 03:55:11;;;;;;;15.50;13.80;;;7.40;99.90;;;;;;5050590;28;20187;-65
2021/11/13 03:57:37;;;;;;;17.97;13.93;;;7.40;99.90;;;;;;5050729;28;20183;-65
2021/11/13 04:00:05;;;;;;;16.47;13.73;;;7.30;99.90;;;;;;5032204;28;20195;-65
2021/11/13 04:02:31;;;;;;;16.43;13.80;;;7.30;99.90;;;;;;5069024;22;20637;-65
2021/11/13 04:04:57;;;;;;;14.90;13.40;;;7.30;99.90;;;;;;5052320;28;20263;-65
2021/11/13 04:07:23;;;;;;;16.73;13.23;;;7.30;99.90;;;;;;5036356;28;20198;-65
2021/11/13 04:09:48;;;;;;;18.40;14.23;;;7.20;99.90;;;;;;5053959;28;20194;-65
2021/11/13 04:12:14;;;;;;;16.13;14.00;;;7.20;99.90;;;;;;5036382;28;20190;-66
2021/11/13 04:14:41;;;;;;;16.50;14.57;;;7.20;99.90;;;;;;5053844;28;20290;-66
2021/11/13 04:17:08;;;;;;;19.37;14.50;;;7.10;99.90;;;;;;5054513;28;20691;-66
2021/11/13 04:19:34;;;;;;;17.40;14.87;;;7.10;99.90;;;;;;5053531;28;20175;-66
2021/11/13 04:22:00;;;;;;;15.37;13.87;;;7.10;99.90;;;;;;5054292;28;20214;-66
2021/11/13 04:24:25;;;;;;;24.63;15.53;;;7.10;99.90;;;;;;5053774;28;20186;-66
2021/11/13 04:26:51;;;;;;;17.40;15.53;;;7.10;99.90;;;;;;5054027;28;20576;-66
2021/11/13 04:29:17;;;;;;;17.57;14.63;;;7.00;99.90;;;;;;5053484;28;20179;-66
2021/11/13 04:31:43;;;;;;;19.70;14.77;;;7.00;99.90;;;;;;5054024;28;20552;-65
2021/11/13 04:34:13;;;;;;;20.57;14.10;;;7.00;99.90;;;;;;5053763;28;20178;-66
2021/11/13 04:36:44;;;;;;;16.10;14.53;;;7.00;99.90;;;;;;5036003;28;20179;-66
2021/11/13 04:39:11;;;;;;;21.10;14.63;;;7.00;99.90;;;;;;5035673;28;20175;-65
2021/11/13 04:41:37;;;;;;;20.63;15.13;;;7.00;99.90;;;;;;5053630;28;20206;-66
2021/11/13 04:44:04;;;;;;;20.00;15.83;;;7.00;99.90;;;;;;5053526;28;20181;-65
2021/11/13 04:46:29;;;;;;;16.70;14.57;;;7.00;99.90;;;;;;5053732;28;20175;-66
2021/11/13 04:48:55;;;;;;;16.73;14.37;;;7.10;99.90;;;;;;5053323;28;20640;-65
2021/11/13 04:51:22;;;;;;;18.63;15.90;;;7.10;99.90;;;;;;5053884;28;20281;-66
2021/11/13 04:53:48;;;;;;;18.80;14.73;;;7.00;99.90;;;;;;5053401;28;20174;-66
2021/11/13 04:56:14;;;;;;;20.93;14.87;;;7.00;99.90;;;;;;5033659;28;20179;-66
2021/11/13 04:58:40;;;;;;;19.77;16.20;;;6.90;99.90;;;;;;5033766;28;20690;-66
2021/11/13 05:01:05;;;;;;;16.97;14.80;;;6.90;99.90;;;;;;5051629;28;20288;-66
2021/11/13 05:03:31;;;;;;;21.53;14.37;;;6.90;99.90;;;;;;5053203;28;20186;-66
2021/11/13 05:05:57;;;;;;;20.97;15.67;;;6.90;99.90;;;;;;5053450;28;20723;-65
2021/11/13 05:08:22;;;;;;;21.93;15.53;;;6.90;99.90;;;;;;5053369;28;20171;-65
2021/11/13 05:10:49;;;;;;;17.53;15.60;;;6.90;99.90;;;;;;5052749;28;20694;-66
2021/11/13 05:13:16;;;;;;;23.27;17.10;;;6.90;99.90;;;;;;5053058;28;20185;-66
2021/11/13 05:15:42;;;;;;;24.10;15.83;;;6.90;99.90;;;;;;5052703;28;20171;-65
2021/11/13 05:18:08;;;;;;;16.43;13.77;;;6.90;99.90;;;;;;5052710;28;20179;-66
2021/11/13 05:20:33;;;;;;;19.10;14.03;;;6.90;99.90;;;;;;5052488;28;20206;-66
2021/11/13 05:22:59;;;;;;;17.27;15.23;;;6.90;99.90;;;;;;5052803;28;20175;-66
2021/11/13 05:25:25;;;;;;;20.30;16.43;;;6.90;99.90;;;;;;5052977;28;20174;-66
2021/11/13 05:27:51;;;;;;;17.57;14.93;;;6.90;99.90;;;;;;5052689;28;20245;-66
2021/11/13 05:30:18;;;;;;;18.30;15.10;;;6.90;99.90;;;;;;5052640;28;20198;-66
2021/11/13 05:32:44;;;;;;;18.23;14.43;;;7.00;99.90;;;;;;5052675;28;20701;-66
2021/11/13 05:35:11;;;;;;;23.67;15.57;;;6.90;99.90;;;;;;5053098;28;20179;-66
2021/11/13 05:37:37;;;;;;;18.70;15.47;;;6.90;99.90;;;;;;5052530;28;20701;-66
2021/11/13 05:40:05;;;;;;;19.97;16.20;;;6.90;99.90;;;;;;5052457;28;20223;-66
2021/11/13 05:42:31;;;;;;;19.20;15.63;;;6.90;99.90;;;;;;5052167;28;20203;-65
2021/11/13 05:44:57;;;;;;;21.57;15.37;;;6.90;99.90;;;;;;5052583;28;20191;-65
2021/11/13 05:47:24;;;;;;;18.80;16.57;;;6.90;99.90;;;;;;5052343;28;20179;-66
2021/11/13 05:49:51;;;;;;;23.37;16.00;;;6.90;99.90;;;;;;5034414;28;20671;-65
2021/11/13 05:52:17;;;;;;;23.80;14.63;;;7.00;99.90;;;;;;5052122;28;20202;-66
2021/11/13 05:54:42;;;;;;;19.67;15.63;;;7.00;99.90;;;;;;5052476;28;20175;-66
2021/11/13 05:57:08;;;;;;;17.90;14.87;;;7.00;99.90;;;;;;5052086;28;20312;-66
2021/11/13 05:59:34;;;;;;;22.30;17.40;;;7.00;99.90;;;;;;5051424;28;20199;-66
2021/11/13 06:01:59;;;;;;;23.20;15.00;;;7.00;99.90;;;;;;5051658;28;20206;-66
2021/11/13 06:04:25;;;;;;;21.03;16.43;;;7.00;99.90;;;;;;5051981;28;20206;-66
2021/11/13 06:06:51;;;;;;;19.33;17.07;;;7.00;99.90;;;;;;5051956;28;20174;-66
2021/11/13 06:09:16;;;;;;;28.07;17.97;;;7.10;99.90;;;;;;5051820;28;20175;-66
2021/11/13 06:11:42;;;;;;;23.37;17.50;;;7.10;99.90;;;;;;5051887;28;20205;-66
2021/11/13 06:14:07;;;;;;;22.80;16.23;;;7.10;99.90;;;;;;5052158;28;20540;-66
2021/11/13 06:16:33;;;;;;;18.07;15.63;;;7.10;99.90;;;;;;5051769;28;20206;-66
2021/11/13 06:18:58;;;;;;;25.20;17.10;;;7.10;99.90;;;;;;5051413;28;20254;-66
2021/11/13 06:21:24;;;;;;;18.30;14.67;;;7.20;99.90;;;;;;5051796;28;20217;-66
2021/11/13 06:23:50;;;;;;;22.90;14.97;;;7.20;99.90;;;;;;5051977;28;20208;-66
2021/11/13 06:26:18;;;;;;;19.13;14.60;;;7.20;99.90;;;;;;5051492;28;20185;-66
2021/11/13 06:28:43;;;;;;;23.27;15.47;;;7.20;99.90;;;;;;5051585;28;20167;-66
2021/11/13 06:31:10;;;;;;;19.67;15.03;;;7.20;99.90;;;;;;5051241;28;20205;-66
2021/11/13 06:33:36;;;;;;;22.97;16.40;;;7.30;99.90;;;;;;5053509;28;20709;-66
2021/11/13 06:36:02;;;;;;;25.77;14.93;;;7.30;99.90;;;;;;5051805;28;20182;-66
2021/11/13 06:38:28;;;;;;;17.30;14.17;;;7.30;99.90;;;;;;5051688;28;20506;-66
2021/11/13 06:40:53;;;;;;;16.57;14.27;;;7.30;99.90;;;;;;5051049;28;20207;-66
2021/11/13 06:43:19;;;;;;;18.97;14.70;;;7.30;99.90;;;;;;5033628;28;20174;-66
2021/11/13 06:45:45;;;;;;;24.57;14.70;;;7.30;99.90;;;;;;5062483;28;20209;-66
2021/11/13 06:48:11;;;;;;;19.53;13.70;;;7.30;99.90;;;;;;5050596;28;20544;-67
2021/11/13 06:50:37;;;;;;;23.77;14.30;;;7.40;99.90;;;;;;5050959;28;20183;-67
2021/11/13 06:53:03;;;;;;;21.43;16.53;;;7.40;99.90;;;;;;5051158;28;20163;-66
2021/11/13 06:55:29;;;;;;;19.80;15.10;;;7.40;99.90;;;;;;5051244;28;20203;-66
2021/11/13 06:57:55;;;;;;;17.80;14.20;;;7.40;99.90;;;;;;5051398;28;20179;-67
2021/11/13 07:00:22;;;;;;;23.97;14.83;;;7.40;99.90;;;;;;5050614;28;20234;-67
2021/11/13 07:02:48;;;;;;;19.37;13.53;;;7.50;99.90;;;;;;5051242;28;20206;-66
2021/11/13 07:05:14;;;;;;;17.27;14.00;;;7.50;99.90;;;;;;5051062;28;20707;-66
2021/11/13 07:07:40;;;;;;;18.97;14.37;;;7.50;99.90;;;;;;5051067;28;20170;-66
2021/11/13 07:10:10;;;;;;;19.90;13.80;;;7.60;99.90;;;;;;5050640;28;20229;-66
2021/11/13 07:12:36;;;;;;;18.30;14.20;;;7.50;99.90;;;;;;5050874;28;20252;-66
2021/11/13 07:15:04;;;;;;;16.97;14.73;;;7.60;99.90;;;;;;5051095;28;20181;-66
2021/11/13 07:17:29;;;;;;;21.70;14.93;;;7.60;99.90;;;;;;5050694;28;20189;-67
2021/11/13 07:19:55;;;;;;;17.43;15.53;;;7.60;99.90;;;;;;5032902;28;20179;-66
2021/11/13 07:22:20;;;;;;;17.30;14.37;;;7.60;99.90;;;;;;5050722;28;20203;-67
2021/11/13 07:24:46;;;;;;;19.63;15.80;;;7.60;99.90;;;;;;5051026;28;20167;-67
2021/11/13 07:27:13;;;;;;;17.10;14.03;;;7.70;99.90;;;;;;5032986;28;20178;-67
2021/11/13 07:29:58;;;;;;;18.10;14.93;;;7.70;99.90;;;;;;5050418;28;20282;-67
2021/11/13 07:32:25;;;;;;;18.67;12.87;;;7.80;99.90;;;;;;5050656;28;20225;-66
2021/11/13 07:34:50;;;;;;;17.10;13.97;;;7.80;99.90;;;;;;5038575;28;20188;-66
2021/11/13 07:37:17;;;;;;;18.43;15.17;;;7.90;99.90;;;;;;5030940;28;20630;-67
2021/11/13 07:39:42;;;;;;;18.17;13.77;;;7.90;99.90;;;;;;5034473;28;20179;-67
2021/11/13 07:42:08;;;;;;;15.07;13.43;;;7.90;99.90;;;;;;5054798;28;20187;-66
2021/11/13 07:44:34;;;;;;;18.20;14.27;;;8.00;99.90;;;;;;5054181;28;20178;-66
2021/11/13 07:46:59;;;;;;;15.93;14.00;;;8.00;99.90;;;;;;5036834;28;20215;-67
2021/11/13 07:49:25;;;;;;;19.63;13.63;;;8.00;99.90;;;;;;5036488;28;20236;-67
2021/11/13 07:51:51;;;;;;;18.13;13.80;;;8.00;99.90;;;;;;5054340;28;20209;-67
2021/11/13 07:54:17;;;;;;;20.33;13.57;;;8.00;99.90;;;;;;5036724;28;20231;-67
2021/11/13 07:56:43;;;;;;;22.43;13.23;;;8.00;99.90;;;;;;5036362;28;20185;-66
2021/11/13 07:59:09;;;;;;;15.83;13.53;;;8.00;99.90;;;;;;5054360;28;20611;-66
2021/11/13 08:01:35;;;;;;;15.53;13.53;;;8.00;99.90;;;;;;5053849;28;20703;-66
2021/11/13 08:04:00;;;;;;;15.27;13.37;;;8.10;99.90;;;;;;5054277;28;20203;-67
2021/11/13 08:06:26;;;;;;;18.33;14.17;;;8.00;99.90;;;;;;5054558;28;20288;-66
2021/11/13 08:08:52;;;;;;;16.73;12.73;;;8.00;99.90;;;;;;5054110;28;20187;-66
2021/11/13 08:11:18;;;;;;;17.17;15.30;;;8.00;99.90;;;;;;5053948;28;20205;-66
2021/11/13 08:13:43;;;;;;;17.47;13.63;;;8.00;99.90;;;;;;5036035;28;20183;-67
2021/11/13 08:16:09;;;;;;;16.57;14.60;;;8.00;99.90;;;;;;5036393;28;20182;-67
2021/11/13 08:18:36;;;;;;;16.13;13.37;;;7.90;99.90;;;;;;5035758;28;20656;-66
2021/11/13 08:21:02;;;;;;;14.57;12.93;;;7.90;99.90;;;;;;5052445;28;20290;-66
2021/11/13 08:23:28;;;;;;;15.87;12.40;;;7.90;99.90;;;;;;5035744;28;20198;-67
2021/11/13 08:25:55;;;;;;;17.43;13.07;;;7.90;99.90;;;;;;5054088;28;20171;-67
2021/11/13 08:28:21;;;;;;;16.03;12.57;;;7.90;99.90;;;;;;5053619;28;20599;-67
2021/11/13 08:30:47;;;;;;;18.00;14.50;;;8.00;99.90;;;;;;5035657;28;20186;-67
2021/11/13 08:33:13;;;;;;;17.37;15.57;;;8.00;99.90;;;;;;5053531;28;20268;-67
2021/11/13 08:35:41;;;;;;;16.67;15.10;;;8.10;99.90;;;;;;5053796;28;20186;-67
2021/11/13 08:38:08;;;;;;;16.13;13.90;;;8.10;99.90;;;;;;5035574;28;20606;-66
2021/11/13 08:40:34;;;;;;;14.83;13.23;;;8.10;99.90;;;;;;5053197;28;20676;-67
2021/11/13 08:43:01;;;;;;;13.23;12.00;;;8.10;99.90;;;;;;5053362;28;20198;-67
2021/11/13 08:45:27;;;;;;;14.80;12.47;;;8.20;99.90;;;;;;5053460;28;20181;-67
2021/11/13 08:47:53;;;;;;;13.30;12.00;;;8.30;99.90;;;;;;5053433;28;20186;-66
2021/11/13 08:50:25;;;;;;;13.07;11.67;;;8.30;99.90;;;;;;5052804;28;20301;-66
2021/11/13 08:52:54;;;;;;;15.67;11.77;;;8.40;99.90;;;;;;5052536;28;20710;-66
2021/11/13 08:55:22;;;;;;;13.80;12.37;;;8.40;99.90;;;;;;5035373;28;20217;-67
2021/11/13 08:57:49;;;;;;;13.53;12.30;;;8.50;99.90;;;;;;5052708;28;20197;-66
2021/11/13 09:00:24;;;;;;;13.23;11.93;;;8.50;99.90;;;;;;5052624;28;20210;-67
2021/11/13 09:02:51;;;;;;;13.90;10.43;;;8.60;99.90;;;;;;5034950;28;20213;-67
2021/11/13 09:05:16;;;;;;;11.47;10.37;;;8.60;99.90;;;;;;5035472;28;20273;-66
2021/11/13 09:07:42;;;;;;;11.50;10.40;;;8.70;99.90;;;;;;5053249;28;20321;-66
2021/11/13 09:10:08;;;;;;;11.20;10.20;;;8.70;99.90;;;;;;5052987;28;20179;-67
2021/11/13 09:12:36;;;;;;;11.67;10.50;;;8.80;99.90;;;;;;5052117;28;20198;-66
2021/11/13 09:15:25;;;;;;;11.60;10.40;;;8.90;99.90;;;;;;5053101;28;20186;-66
2021/11/13 09:17:51;;;;;;;9.53;8.77;;;9.00;99.90;;;;;;5053056;28;20178;-66
2021/11/13 09:20:18;;;;;;;8.90;8.10;;;9.10;99.90;;;;;;5052603;28;20388;-66
2021/11/13 09:22:44;;;;;;;9.80;8.80;;;9.20;99.90;;;;;;5052835;28;20190;-66
2021/11/13 09:25:09;;;;;;;10.47;9.53;;;9.30;99.90;;;;;;5053117;28;20179;-66
2021/11/13 09:27:37;;;;;;;10.77;9.97;;;9.40;99.90;;;;;;5052775;28;20179;-66
2021/11/13 09:30:10;;;;;;;11.13;10.03;;;9.50;99.90;;;;;;5052711;28;20177;-66
2021/11/13 09:32:35;;;;;;;10.93;9.73;;;9.50;99.90;;;;;;5052496;28;20696;-66
2021/11/13 09:35:02;;;;;;;11.50;10.40;;;9.60;99.90;;;;;;5052652;28;20261;-66
2021/11/13 09:37:29;;;;;;;10.47;9.47;;;9.70;99.90;;;;;;5052518;28;20174;-66
2021/11/13 09:39:55;;;;;;;12.13;10.93;;;9.70;99.90;;;;;;5052367;28;20258;-66
2021/11/13 09:42:22;;;;;;;10.17;9.27;;;9.70;99.90;;;;;;5034288;28;20277;-66
2021/11/13 09:44:49;;;;;;;11.33;9.90;;;9.70;99.90;;;;;;5052567;28;20175;-66
2021/11/13 09:47:15;;;;;;;10.90;9.90;;;9.70;99.90;;;;;;5052421;28;20586;-67
2021/11/13 09:49:41;;;;;;;11.57;9.97;;;9.80;99.90;;;;;;5051991;28;20174;-66
2021/11/13 09:52:08;;;;;;;9.40;8.50;;;9.80;99.90;;;;;;5052429;28;20248;-66
2021/11/13 09:54:33;;;;;;;10.63;9.60;;;9.80;99.90;;;;;;5034258;28;20193;-66
2021/11/13 09:56:59;;;;;;;9.50;8.67;;;9.80;99.90;;;;;;5032759;28;20175;-67
2021/11/13 09:59:24;;;;;;;8.33;7.70;;;9.90;99.90;;;;;;5033671;28;20558;-67
2021/11/13 10:01:51;;;;;;;8.07;7.57;;;9.90;99.90;;;;;;5070649;23;20271;-66
2021/11/13 10:04:16;;;;;;;8.20;7.60;;;9.90;99.90;;;;;;5073461;28;20166;-65
2021/11/13 10:06:42;;;;;;;7.27;6.83;;;9.90;99.90;;;;;;5073056;28;20170;-66
2021/11/13 10:09:08;;;;;;;7.37;6.77;;;10.00;99.90;;;;;;5071822;28;20557;-67
2021/11/13 10:11:39;;;;;;;6.90;6.50;;;10.00;99.90;;;;;;5070941;28;20205;-67
2021/11/13 10:14:06;;;;;;;6.90;6.50;;;10.10;99.90;;;;;;5073348;28;20227;-66
2021/11/13 10:16:37;;;;;;;6.90;6.50;;;10.10;99.90;;;;;;5072795;28;20178;-66
2021/11/13 10:19:16;;;;;;;6.53;6.13;;;10.20;99.90;;;;;;5073133;28;20170;-66
2021/11/13 10:21:46;;;;;;;7.50;7.00;;;10.30;99.90;;;;;;5072012;28;20587;-66
2021/11/13 10:24:18;;;;;;;7.33;6.77;;;10.40;99.90;;;;;;5071496;28;20719;-67
2021/11/13 10:26:47;;;;;;;8.73;8.10;;;10.60;99.90;;;;;;5072713;28;20170;-66
2021/11/13 10:29:36;;;;;;;7.40;6.90;;;10.90;99.90;;;;;;5072442;28;20643;-67
2021/11/13 10:32:08;;;;;;;7.17;6.53;;;11.20;99.90;;;;;;5072353;28;20204;-67
2021/11/13 10:34:41;;;;;;;7.63;7.03;;;11.50;99.90;;;;;;5072069;28;20198;-66
2021/11/13 10:37:10;;;;;;;7.10;6.70;;;11.70;99.90;;;;;;5070371;28;20674;-67
2021/11/13 10:39:40;;;;;;;7.40;7.00;;;11.90;99.90;;;;;;5071622;28;20516;-66
2021/11/13 10:42:07;;;;;;;7.60;7.00;;;12.00;99.90;;;;;;5071762;28;20201;-66
2021/11/13 10:44:45;;;;;;;7.57;7.07;;;12.00;99.90;;;;;;5071440;28;20170;-68
2021/11/13 10:47:17;;;;;;;7.53;7.03;;;11.90;99.90;;;;;;5072036;28;20219;-67
2021/11/13 10:49:44;;;;;;;7.90;7.40;;;11.80;99.90;;;;;;5071525;28;20170;-68
2021/11/13 10:52:11;;;;;;;8.07;7.50;;;11.80;99.90;;;;;;5072226;28;20194;-68
2021/11/13 10:54:40;;;;;;;8.60;8.10;;;11.80;99.90;;;;;;5070064;28;20577;-67
2021/11/13 10:57:07;;;;;;;8.00;7.50;;;11.80;99.90;;;;;;5071447;28;20295;-67
2021/11/13 10:59:39;;;;;;;9.10;8.40;;;11.90;99.90;;;;;;5070577;28;20181;-67
2021/11/13 11:02:09;;;;;;;7.97;7.37;;;12.10;99.90;;;;;;5071178;28;20665;-68
2021/11/13 11:04:39;;;;;;;7.37;6.83;;;12.20;99.90;;;;;;5069777;28;20181;-67
2021/11/13 11:07:12;;;;;;;8.00;7.30;;;12.40;99.90;;;;;;5071347;28;20581;-67
2021/11/13 11:09:46;;;;;;;7.93;7.33;;;12.50;99.90;;;;;;5070739;28;20162;-67
2021/11/13 11:12:17;;;;;;;8.30;7.80;;;12.60;99.90;;;;;;5071244;28;20198;-68
2021/11/13 11:14:46;;;;;;;8.37;7.70;;;12.70;99.90;;;;;;5072317;28;20235;-67
2021/11/13 11:17:14;;;;;;;6.97;6.47;;;12.80;99.90;;;;;;5075782;28;20205;-67
2021/11/13 11:19:42;;;;;;;7.27;6.77;;;12.90;99.90;;;;;;5075410;28;20174;-68
2021/11/13 11:22:11;;;;;;;7.23;6.80;;;12.90;99.90;;;;;;5075713;28;20209;-67
2021/11/13 11:24:51;;;;;;;7.40;6.90;;;13.00;99.90;;;;;;5075331;28;20182;-68
2021/11/13 11:27:36;;;;;;;7.30;6.77;;;13.00;99.90;;;;;;5075079;28;20222;-68
2021/11/13 11:30:10;;;;;;;7.27;6.77;;;12.80;99.90;;;;;;5063836;28;20215;-68
2021/11/13 11:32:37;;;;;;;8.33;7.20;;;12.70;99.90;;;;;;5074705;28;20201;-68
2021/11/13 11:35:06;;;;;;;7.57;7.07;;;12.70;99.90;;;;;;5070692;28;20167;-69
2021/11/13 11:37:36;;;;;;;7.90;7.40;;;12.70;99.90;;;;;;5054837;28;20167;-68
2021/11/13 11:40:13;;;;;;;7.37;6.97;;;12.70;99.90;;;;;;5053464;28;20694;-68
2021/11/13 11:42:40;;;;;;;7.17;6.67;;;12.70;99.90;;;;;;5053910;28;20216;-68
2021/11/13 11:45:08;;;;;;;7.53;7.10;;;12.60;99.90;;;;;;5056038;28;20174;-70
2021/11/13 11:47:34;;;;;;;7.47;7.07;;;12.50;99.90;;;;;;5074728;28;20737;-67
2021/11/13 11:50:08;;;;;;;8.43;7.83;;;12.50;99.90;;;;;;5075014;28;20181;-67
2021/11/13 11:52:35;;;;;;;7.67;7.20;;;12.60;99.90;;;;;;5074762;28;20190;-67
2021/11/13 11:55:05;;;;;;;8.07;7.57;;;12.60;99.90;;;;;;5074266;28;20186;-67
2021/11/13 11:57:33;;;;;;;7.67;7.07;;;12.60;99.90;;;;;;5074219;28;20193;-67
2021/11/13 12:00:07;;;;;;;7.97;7.37;;;12.50;99.90;;;;;;5072990;28;20182;-67
2021/11/13 12:02:37;;;;;;;7.97;7.27;;;12.40;99.90;;;;;;5073782;28;20221;-67
2021/11/13 12:05:16;;;;;;;7.67;7.17;;;12.40;99.90;;;;;;5074110;28;20181;-67
2021/11/13 12:07:44;;;;;;;7.57;7.07;;;12.40;99.90;;;;;;5074570;28;20268;-65
2021/11/13 12:10:29;;;;;;;8.40;7.80;;;12.40;99.90;;;;;;5074217;28;20657;-67
2021/11/13 12:13:14;;;;;;;8.13;7.63;;;12.40;99.90;;;;;;5074447;28;20197;-67
2021/11/13 12:16:08;;;;;;;8.40;7.87;;;12.40;99.90;;;;;;5073975;28;20902;-67
2021/11/13 12:18:47;;;;;;;8.87;8.20;;;12.40;99.90;;;;;;5073966;28;20178;-67
2021/11/13 12:21:15;;;;;;;8.57;7.97;;;12.30;99.90;;;;;;5073637;28;20209;-68
2021/11/13 12:23:49;;;;;;;9.37;8.57;;;12.30;99.90;;;;;;5073981;28;20654;-67
2021/11/13 12:26:33;;;;;;;8.80;7.80;;;12.20;99.90;;;;;;5073415;28;20225;-67
2021/11/13 12:29:01;;;;;;;9.27;8.53;;;12.20;99.90;;;;;;5074599;28;20182;-67
2021/11/13 12:31:41;;;;;;;8.77;8.17;;;12.00;99.90;;;;;;5073943;28;20221;-66
2021/11/13 12:34:16;;;;;;;13.90;7.97;;;12.00;99.90;;;;;;5074106;28;20166;-68
2021/11/13 12:37:09;;;;;;;10.13;9.33;;;12.00;99.90;;;;;;5074625;28;20170;-68
2021/11/13 12:39:36;;;;;;;9.57;8.87;;;12.00;99.90;;;;;;5074433;28;20232;-67
2021/11/13 12:42:05;;;;;;;9.30;8.50;;;12.00;99.90;;;;;;5074125;28;20289;-68